createdAt,value
2018-09-09T00:01:29.516Z,97403.04
2018-09-09T00:03:56.681Z,97411.83
2018-09-09T00:06:23.981Z,97419.02
2018-09-09T00:08:51.099Z,97417.59
2018-09-09T00:11:18.712Z,97419.76
2018-09-09T00:13:45.819Z,97421.80
2018-09-09T00:16:12.937Z,97411.63
2018-09-09T00:18:40.227Z,97355.65
2018-09-09T00:21:07.543Z,97412.31
2018-09-09T00:23:34.681Z,97411.86
2018-09-09T00:26:01.778Z,97410.08
2018-09-09T00:28:28.954Z,97410.33
2018-09-09T00:30:56.082Z,97413.97
2018-09-09T00:33:23.401Z,97410.99
2018-09-09T00:35:50.575Z,97413.34
2018-09-09T00:38:17.720Z,97406.58
2018-09-09T00:40:44.910Z,97408.80
2018-09-09T00:43:12.021Z,97408.71
2018-09-09T00:45:39.267Z,97408.64
2018-09-09T00:48:06.583Z,97400.66
2018-09-09T00:50:39.543Z,97403.30
2018-09-09T00:53:12.511Z,97401.98
2018-09-09T00:55:39.722Z,97405.64
2018-09-09T00:58:07.076Z,97405.52
2018-09-09T01:00:39.884Z,97409.64
2018-09-09T01:03:07.119Z,97414.53
2018-09-09T01:05:34.224Z,97409.81
2018-09-09T01:08:01.383Z,97415.16
2018-09-09T01:10:28.572Z,97415.82
2018-09-09T01:12:55.737Z,97421.36
2018-09-09T01:15:24.312Z,97428.23
2018-09-09T01:17:52.260Z,97422.38
2018-09-09T01:20:19.567Z,97424.54
2018-09-09T01:22:46.641Z,97417.11
2018-09-09T01:25:13.924Z,97418.15
2018-09-09T01:27:41.107Z,97415.79
2018-09-09T01:30:08.442Z,97416.27
2018-09-09T01:32:35.612Z,97410.89
2018-09-09T01:35:03.137Z,97414.78
2018-09-09T01:37:30.240Z,97413.75
2018-09-09T01:39:57.429Z,97396.29
2018-09-09T01:42:31.290Z,97405.49
2018-09-09T01:44:58.532Z,97409.45
2018-09-09T01:47:25.693Z,97409.61
2018-09-09T01:49:53.203Z,97408.09
2018-09-09T01:52:20.507Z,97414.02
2018-09-09T01:54:47.665Z,97417.13
2018-09-09T01:57:14.797Z,97416.49
2018-09-09T01:59:41.966Z,97423.44
2018-09-09T02:02:09.060Z,97416.50
2018-09-09T02:04:36.233Z,97420.27
2018-09-09T02:07:03.412Z,97416.25
2018-09-09T02:09:30.540Z,97421.32
2018-09-09T02:11:57.705Z,97412.16
2018-09-09T02:14:24.860Z,97417.18
2018-09-09T02:16:52.037Z,97416.55
2018-09-09T02:19:19.439Z,97414.44
2018-09-09T02:21:46.548Z,97417.06
2018-09-09T02:24:13.764Z,97417.27
2018-09-09T02:26:40.917Z,97408.27
2018-09-09T02:29:08.097Z,97419.61
2018-09-09T02:31:35.300Z,97415.86
2018-09-09T02:34:02.396Z,97417.96
2018-09-09T02:36:29.545Z,97412.53
2018-09-09T02:38:56.781Z,97415.17
2018-09-09T02:41:23.972Z,97413.30
2018-09-09T02:43:51.279Z,97411.41
2018-09-09T02:46:18.592Z,97402.37
2018-09-09T02:48:45.705Z,97417.96
2018-09-09T02:51:12.905Z,97419.22
2018-09-09T02:53:40.061Z,97422.08
2018-09-09T02:56:09.112Z,97425.05
2018-09-09T02:58:36.265Z,97424.75
2018-09-09T03:01:03.430Z,97424.63
2018-09-09T03:03:30.563Z,97419.38
2018-09-09T03:05:57.823Z,97416.01
2018-09-09T03:08:24.946Z,97413.00
2018-09-09T03:10:57.953Z,97417.56
2018-09-09T03:13:25.121Z,97411.23
2018-09-09T03:15:52.268Z,97409.42
2018-09-09T03:18:20.340Z,97420.09
2018-09-09T03:20:48.891Z,97418.46
2018-09-09T03:23:16.052Z,97423.97
2018-09-09T03:25:43.276Z,97422.73
2018-09-09T03:28:10.511Z,97418.34
2018-09-09T03:30:37.614Z,97418.47
2018-09-09T03:33:04.928Z,97417.25
2018-09-09T03:35:32.253Z,97417.69
2018-09-09T03:37:59.413Z,97420.65
2018-09-09T03:40:26.513Z,97423.45
2018-09-09T03:42:53.718Z,97418.78
2018-09-09T03:45:20.868Z,97415.75
2018-09-09T03:47:48.205Z,97417.45
2018-09-09T03:50:15.329Z,97414.63
2018-09-09T03:52:42.504Z,97424.31
2018-09-09T03:55:09.775Z,97418.78
2018-09-09T03:57:36.861Z,97415.23
2018-09-09T04:00:04.380Z,97418.47
2018-09-09T04:02:31.740Z,97428.25
2018-09-09T04:04:58.921Z,97419.73
2018-09-09T04:07:26.063Z,97423.29
2018-09-09T04:09:53.263Z,97427.55
2018-09-09T04:12:20.340Z,97431.91
2018-09-09T04:14:47.769Z,97423.34
2018-09-09T04:17:14.929Z,97424.47
2018-09-09T04:19:42.035Z,97419.08
2018-09-09T04:22:09.281Z,97419.91
2018-09-09T04:24:36.413Z,97427.36
2018-09-09T04:27:03.612Z,97419.80
2018-09-09T04:29:30.725Z,97422.56
2018-09-09T04:31:57.832Z,97423.29
2018-09-09T04:34:25.006Z,97340.92
2018-09-09T04:36:52.184Z,97431.21
2018-09-09T04:39:19.324Z,97429.35
2018-09-09T04:41:46.517Z,97427.12
2018-09-09T04:44:13.667Z,97425.61
2018-09-09T04:46:40.828Z,97425.87
2018-09-09T04:49:08.848Z,97353.01
2018-09-09T04:51:36.073Z,97436.44
2018-09-09T04:54:03.225Z,97433.22
2018-09-09T04:56:30.681Z,97437.61
2018-09-09T04:58:57.767Z,97439.84
2018-09-09T05:01:24.912Z,97440.92
2018-09-09T05:03:52.078Z,97443.02
2018-09-09T05:06:19.248Z,97424.01
2018-09-09T05:08:46.443Z,97446.44
2018-09-09T05:11:13.917Z,97441.48
2018-09-09T05:13:41.041Z,97450.45
2018-09-09T05:16:08.234Z,97453.13
2018-09-09T05:18:35.332Z,97454.25
2018-09-09T05:21:02.512Z,97462.73
2018-09-09T05:23:29.707Z,97463.08
2018-09-09T05:25:56.871Z,97460.87
2018-09-09T05:28:24.080Z,97465.80
2018-09-09T05:30:51.240Z,97465.84
2018-09-09T05:33:18.361Z,97468.02
2018-09-09T05:35:45.566Z,97468.77
2018-09-09T05:38:12.717Z,97482.34
2018-09-09T05:40:39.884Z,97487.15
2018-09-09T05:43:07.097Z,97484.16
2018-09-09T05:45:34.253Z,97490.28
2018-09-09T05:48:01.595Z,97488.58
2018-09-09T05:50:28.818Z,97483.27
2018-09-09T05:53:02.724Z,97491.66
2018-09-09T05:55:29.949Z,97491.55
2018-09-09T05:57:57.065Z,97485.66
2018-09-09T06:00:24.226Z,97486.99
2018-09-09T06:02:51.468Z,97495.77
2018-09-09T06:05:18.633Z,97498.16
2018-09-09T06:07:45.920Z,97497.80
2018-09-09T06:10:13.029Z,97498.91
2018-09-09T06:12:40.270Z,97493.02
2018-09-09T06:15:07.445Z,97498.05
2018-09-09T06:17:34.581Z,97498.88
2018-09-09T06:20:01.839Z,97500.95
2018-09-09T06:22:29.033Z,97500.26
2018-09-09T06:24:56.659Z,97498.34
2018-09-09T06:27:23.857Z,97494.54
2018-09-09T06:29:51.096Z,97502.10
2018-09-09T06:32:18.230Z,97505.05
2018-09-09T06:34:45.401Z,97500.94
2018-09-09T06:37:12.540Z,97494.23
2018-09-09T06:39:39.718Z,97504.06
2018-09-09T06:42:06.867Z,97504.38
2018-09-09T06:44:34.048Z,97499.39
2018-09-09T06:47:01.168Z,97504.34
2018-09-09T06:49:28.324Z,97512.59
2018-09-09T06:51:55.509Z,97506.77
2018-09-09T06:54:22.616Z,97508.50
2018-09-09T06:56:49.896Z,97503.36
2018-09-09T06:59:17.078Z,97498.50
2018-09-09T07:01:44.220Z,97482.34
2018-09-09T07:04:11.368Z,97488.27
2018-09-09T07:06:38.647Z,97476.39
2018-09-09T07:09:07.022Z,97483.03
2018-09-09T07:11:34.363Z,97486.15
2018-09-09T07:14:01.421Z,97486.86
2018-09-09T07:16:28.624Z,97492.84
2018-09-09T07:18:55.931Z,97497.16
2018-09-09T07:21:23.030Z,97496.97
2018-09-09T07:23:50.202Z,97498.77
2018-09-09T07:26:17.511Z,97500.30
2018-09-09T07:28:44.711Z,97494.59
2018-09-09T07:31:11.964Z,97490.00
2018-09-09T07:33:39.201Z,97499.63
2018-09-09T07:36:06.368Z,97489.64
2018-09-09T07:38:33.536Z,97493.72
2018-09-09T07:41:00.664Z,97495.34
2018-09-09T07:43:27.812Z,97492.67
2018-09-09T07:45:55.143Z,97485.70
2018-09-09T07:48:22.329Z,97489.60
2018-09-09T07:50:49.575Z,97491.17
2018-09-09T07:53:16.682Z,97485.72
2018-09-09T07:55:43.808Z,97494.73
2018-09-09T07:58:11.025Z,97487.50
2018-09-09T08:00:38.244Z,97486.03
2018-09-09T08:03:05.498Z,97492.23
2018-09-09T08:05:33.121Z,97488.25
2018-09-09T08:08:00.265Z,97488.86
2018-09-09T08:10:27.418Z,97490.16
2018-09-09T08:12:54.743Z,97495.89
2018-09-09T08:15:22.562Z,97492.19
2018-09-09T08:17:49.748Z,97489.79
2018-09-09T08:20:17.073Z,97479.59
2018-09-09T08:22:44.232Z,97482.67
2018-09-09T08:25:11.356Z,97483.23
2018-09-09T08:27:38.696Z,97486.31
2018-09-09T08:30:05.929Z,97479.63
2018-09-09T08:32:33.165Z,97486.25
2018-09-09T08:35:00.412Z,97474.08
2018-09-09T08:37:27.687Z,97476.09
2018-09-09T08:39:55.013Z,97470.34
2018-09-09T08:42:22.292Z,97469.50
2018-09-09T08:44:49.462Z,97466.00
2018-09-09T08:47:16.677Z,97465.14
2018-09-09T08:49:43.773Z,97469.45
2018-09-09T08:52:10.949Z,97475.39
2018-09-09T08:54:38.181Z,97477.80
2018-09-09T08:57:05.385Z,97475.69
2018-09-09T08:59:32.493Z,97473.48
2018-09-09T09:01:59.670Z,97469.52
2018-09-09T09:04:26.825Z,97475.53
2018-09-09T09:06:54.589Z,97475.10
2018-09-09T09:09:21.868Z,97480.31
2018-09-09T09:11:49.065Z,97481.30
2018-09-09T09:14:16.241Z,97484.80
2018-09-09T09:16:43.437Z,97487.83
2018-09-09T09:19:10.553Z,97488.09
2018-09-09T09:21:37.773Z,97482.34
2018-09-09T09:24:04.953Z,97486.97
2018-09-09T09:26:32.096Z,97479.89
2018-09-09T09:28:59.420Z,97471.33
2018-09-09T09:31:26.622Z,97469.70
2018-09-09T09:33:53.913Z,97457.77
2018-09-09T09:36:21.218Z,97457.58
2018-09-09T09:38:48.406Z,97456.81
2018-09-09T09:41:15.625Z,97456.33
2018-09-09T09:43:42.923Z,97462.48
2018-09-09T09:46:10.077Z,97464.14
2018-09-09T09:48:37.395Z,97466.89
2018-09-09T09:51:04.565Z,97470.83
2018-09-09T09:53:32.467Z,97474.05
2018-09-09T09:55:59.580Z,97480.77
2018-09-09T09:58:26.760Z,97475.47
2018-09-09T10:01:00.955Z,97473.04
2018-09-09T10:03:28.161Z,97471.52
2018-09-09T10:05:55.301Z,97472.20
2018-09-09T10:08:22.446Z,97474.58
2018-09-09T10:10:50.365Z,97465.28
2018-09-09T10:13:17.534Z,97466.19
2018-09-09T10:15:44.734Z,97462.56
2018-09-09T10:18:12.033Z,97459.97
2018-09-09T10:20:39.184Z,97456.33
2018-09-09T10:23:06.514Z,97455.83
2018-09-09T10:25:33.798Z,97452.11
2018-09-09T10:28:00.952Z,97454.08
2018-09-09T10:30:28.197Z,97454.55
2018-09-09T10:32:56.104Z,97448.16
2018-09-09T10:35:23.760Z,97442.02
2018-09-09T10:37:51.036Z,97442.75
2018-09-09T10:40:18.394Z,97436.92
2018-09-09T10:42:45.569Z,97436.35
2018-09-09T10:45:12.705Z,97440.80
2018-09-09T10:47:39.909Z,97439.42
2018-09-09T10:50:07.136Z,97447.73
2018-09-09T10:52:34.394Z,97440.08
2018-09-09T10:55:01.615Z,97445.27
2018-09-09T10:57:28.832Z,97435.16
2018-09-09T10:59:56.045Z,97435.38
2018-09-09T11:02:23.289Z,97438.24
2018-09-09T11:04:50.540Z,97441.81
2018-09-09T11:07:18.049Z,97442.92
2018-09-09T11:09:45.142Z,97439.32
2018-09-09T11:12:12.244Z,97441.19
2018-09-09T11:14:39.400Z,97443.48
2018-09-09T11:17:06.597Z,97445.91
2018-09-09T11:19:33.768Z,97452.34
2018-09-09T11:22:00.946Z,97450.92
2018-09-09T11:24:28.241Z,97443.55
2018-09-09T11:26:55.548Z,97446.48
2018-09-09T11:29:22.729Z,97438.63
2018-09-09T11:31:49.904Z,97434.37
2018-09-09T11:34:17.157Z,97430.14
2018-09-09T11:36:44.366Z,97425.22
2018-09-09T11:39:11.473Z,97424.81
2018-09-09T11:41:39.405Z,97422.00
2018-09-09T11:44:06.709Z,97418.94
2018-09-09T11:46:34.005Z,97414.47
2018-09-09T11:49:01.869Z,97414.17
2018-09-09T11:51:29.028Z,97421.34
2018-09-09T11:53:56.549Z,97421.55
2018-09-09T11:56:24.622Z,97426.52
2018-09-09T11:58:51.848Z,97423.11
2018-09-09T12:01:19.035Z,97419.75
2018-09-09T12:03:46.262Z,97413.81
2018-09-09T12:06:13.391Z,97404.55
2018-09-09T12:08:40.631Z,97407.93
2018-09-09T12:11:07.885Z,97410.09
2018-09-09T12:13:35.082Z,97408.69
2018-09-09T12:16:02.306Z,97409.74
2018-09-09T12:18:29.557Z,97412.48
2018-09-09T12:20:56.745Z,97409.25
2018-09-09T12:23:24.179Z,97411.91
2018-09-09T12:25:51.333Z,97411.13
2018-09-09T12:28:18.553Z,97406.81
2018-09-09T12:30:45.770Z,97406.05
2018-09-09T12:33:12.945Z,97406.36
2018-09-09T12:35:40.147Z,97405.84
2018-09-09T12:38:07.455Z,97404.08
2018-09-09T12:40:34.644Z,97400.72
2018-09-09T12:43:07.718Z,97395.63
2018-09-09T12:45:40.652Z,97395.19
2018-09-09T12:48:13.650Z,97391.03
2018-09-09T12:50:40.808Z,97392.43
2018-09-09T12:53:08.122Z,97392.17
2018-09-09T12:55:35.291Z,97389.42
2018-09-09T12:58:02.470Z,97391.41
2018-09-09T13:00:29.732Z,97392.47
2018-09-09T13:02:56.846Z,97390.47
2018-09-09T13:05:24.415Z,97388.86
2018-09-09T13:07:51.624Z,97386.59
2018-09-09T13:10:18.827Z,97384.02
2018-09-09T13:12:52.950Z,97388.53
2018-09-09T13:15:20.208Z,97383.50
2018-09-09T13:17:47.381Z,97389.55
2018-09-09T13:20:14.637Z,97395.03
2018-09-09T13:22:41.872Z,97397.28
2018-09-09T13:25:09.028Z,97392.11
2018-09-09T13:27:36.356Z,97389.42
2018-09-09T13:30:04.166Z,97388.63
2018-09-09T13:32:31.498Z,97386.28
2018-09-09T13:34:58.808Z,97392.84
2018-09-09T13:37:26.042Z,97394.80
2018-09-09T13:39:53.262Z,97383.80
2018-09-09T13:42:20.689Z,97383.83
2018-09-09T13:44:47.877Z,97381.19
2018-09-09T13:47:15.163Z,97387.71
2018-09-09T13:49:42.558Z,97388.11
2018-09-09T13:52:09.771Z,97393.36
2018-09-09T13:54:37.009Z,97394.87
2018-09-09T13:57:04.246Z,97387.19
2018-09-09T13:59:31.490Z,97391.61
2018-09-09T14:01:58.918Z,97389.70
2018-09-09T14:04:26.124Z,97386.55
2018-09-09T14:06:53.426Z,97378.84
2018-09-09T14:09:20.672Z,97380.80
2018-09-09T14:11:47.878Z,97379.24
2018-09-09T14:14:15.154Z,97378.28
2018-09-09T14:16:42.490Z,97372.48
2018-09-09T14:19:09.690Z,97381.56
2018-09-09T14:21:36.969Z,97379.84
2018-09-09T14:24:04.335Z,97383.91
2018-09-09T14:26:31.572Z,97385.47
2018-09-09T14:28:58.833Z,97384.66
2018-09-09T14:31:26.106Z,97390.23
2018-09-09T14:33:53.472Z,97392.88
2018-09-09T14:36:20.739Z,97387.02
2018-09-09T14:38:48.010Z,97387.07
2018-09-09T14:41:15.222Z,97388.30
2018-09-09T14:43:42.543Z,97388.52
2018-09-09T14:46:09.979Z,97384.52
2018-09-09T14:48:37.017Z,97383.60
2018-09-09T14:51:04.444Z,97386.19
2018-09-09T14:53:31.693Z,97382.59
2018-09-09T14:55:58.848Z,97383.22
2018-09-09T14:58:26.258Z,97382.68
2018-09-09T15:00:53.410Z,97383.52
2018-09-09T15:03:20.992Z,97376.08
2018-09-09T15:05:48.296Z,97381.63
2018-09-09T15:08:15.490Z,97386.64
2018-09-09T15:10:42.710Z,97383.40
2018-09-09T15:13:09.921Z,97384.55
2018-09-09T15:15:37.077Z,97388.53
2018-09-09T15:18:04.361Z,97383.61
2018-09-09T15:20:31.520Z,97387.33
2018-09-09T15:22:58.761Z,97386.28
2018-09-09T15:25:25.975Z,97382.75
2018-09-09T15:27:53.310Z,97383.45
2018-09-09T15:30:20.576Z,97384.50
2018-09-09T15:32:47.803Z,97389.28
2018-09-09T15:35:15.029Z,97394.00
2018-09-09T15:37:42.311Z,97390.68
2018-09-09T15:40:09.673Z,97395.02
2018-09-09T15:42:36.866Z,97386.37
2018-09-09T15:45:05.415Z,97379.53
2018-09-09T15:47:33.241Z,97378.61
2018-09-09T15:50:00.501Z,97371.80
2018-09-09T15:52:27.678Z,97378.56
2018-09-09T15:54:55.002Z,97374.69
2018-09-09T15:57:23.035Z,97380.42
2018-09-09T15:59:50.227Z,97377.44
2018-09-09T16:02:17.614Z,97371.53
2018-09-09T16:04:44.789Z,97377.48
2018-09-09T16:07:12.724Z,97386.03
2018-09-09T16:09:40.009Z,97380.06
2018-09-09T16:12:08.078Z,97380.82
2018-09-09T16:14:35.293Z,97378.27
2018-09-09T16:17:02.619Z,97375.23
2018-09-09T16:19:29.861Z,97377.55
2018-09-09T16:21:57.246Z,97374.34
2018-09-09T16:24:24.574Z,97376.91
2018-09-09T16:26:51.884Z,97378.03
2018-09-09T16:29:19.092Z,97378.55
2018-09-09T16:31:46.430Z,97386.60
2018-09-09T16:34:13.794Z,97383.72
2018-09-09T16:36:41.185Z,97379.64
2018-09-09T16:39:08.623Z,97383.33
2018-09-09T16:41:35.898Z,97385.90
2018-09-09T16:44:03.278Z,97375.64
2018-09-09T16:46:31.635Z,97379.30
2018-09-09T16:48:58.896Z,97378.30
2018-09-09T16:51:26.136Z,97373.06
2018-09-09T16:53:53.450Z,97375.00
2018-09-09T16:56:20.653Z,97375.19
2018-09-09T16:58:47.909Z,97381.22
2018-09-09T17:01:15.203Z,97379.21
2018-09-09T17:03:43.032Z,97386.09
2018-09-09T17:06:10.315Z,97388.45
2018-09-09T17:08:38.569Z,97361.74
2018-09-09T17:11:06.198Z,97378.47
2018-09-09T17:13:33.569Z,97385.69
2018-09-09T17:16:00.822Z,97381.69
2018-09-09T17:18:28.061Z,97384.53
2018-09-09T17:20:55.318Z,97389.05
2018-09-09T17:23:22.578Z,97392.89
2018-09-09T17:25:49.777Z,97398.33
2018-09-09T17:28:17.058Z,97394.67
2018-09-09T17:30:44.462Z,97404.75
2018-09-09T17:33:11.708Z,97404.04
2018-09-09T17:35:38.894Z,97407.70
2018-09-09T17:38:06.891Z,97408.72
2018-09-09T17:40:34.080Z,97407.14
2018-09-09T17:43:01.751Z,97401.11
2018-09-09T17:45:29.078Z,97413.66
2018-09-09T17:47:56.343Z,97425.61
2018-09-09T17:50:23.655Z,97425.91
2018-09-09T17:52:51.072Z,97421.52
2018-09-09T17:55:18.326Z,97421.93
2018-09-09T17:57:45.612Z,97423.84
2018-09-09T18:00:13.375Z,97431.64
2018-09-09T18:02:40.574Z,97434.77
2018-09-09T18:05:08.373Z,97428.90
2018-09-09T18:07:35.672Z,97434.75
2018-09-09T18:10:03.839Z,97433.06
2018-09-09T18:12:31.082Z,97439.09
2018-09-09T18:14:58.588Z,97440.17
2018-09-09T18:17:25.824Z,97446.16
2018-09-09T18:19:52.968Z,97447.84
2018-09-09T18:22:20.853Z,97444.51
2018-09-09T18:24:49.262Z,97452.53
2018-09-09T18:27:16.510Z,97456.00
2018-09-09T18:29:43.828Z,97454.56
2018-09-09T18:32:11.149Z,97443.28
2018-09-09T18:34:38.405Z,97449.91
2018-09-09T18:37:05.824Z,97453.88
2018-09-09T18:39:33.394Z,97459.50
2018-09-09T18:42:00.665Z,97453.22
2018-09-09T18:44:27.887Z,97454.34
2018-09-09T18:46:55.136Z,97459.72
2018-09-09T18:49:22.390Z,97460.36
2018-09-09T18:51:49.752Z,97462.95
2018-09-09T18:54:17.065Z,97457.59
2018-09-09T18:56:44.273Z,97458.38
2018-09-09T18:59:11.599Z,97455.03
2018-09-09T19:01:38.856Z,97463.03
2018-09-09T19:04:06.221Z,97459.19
2018-09-09T19:06:33.525Z,97458.97
2018-09-09T19:09:00.941Z,97457.98
2018-09-09T19:11:28.251Z,97452.95
2018-09-09T19:13:55.719Z,97451.10
2018-09-09T19:16:23.002Z,97449.77
2018-09-09T19:18:50.259Z,97455.31
2018-09-09T19:21:17.665Z,97457.48
2018-09-09T19:23:44.845Z,97455.02
2018-09-09T19:26:12.083Z,97455.98
2018-09-09T19:28:39.330Z,97464.89
2018-09-09T19:31:07.447Z,97466.48
2018-09-09T19:33:34.775Z,97462.78
2018-09-09T19:36:02.130Z,97463.94
2018-09-09T19:38:29.430Z,97462.23
2018-09-09T19:40:56.714Z,97466.27
2018-09-09T19:43:24.047Z,97473.23
2018-09-09T19:45:51.887Z,97472.04
2018-09-09T19:48:19.520Z,97468.35
2018-09-09T19:50:46.881Z,97472.20
2018-09-09T19:53:15.301Z,97473.25
2018-09-09T19:55:42.560Z,97471.47
2018-09-09T19:58:09.837Z,97469.93
2018-09-09T20:00:37.690Z,97479.70
2018-09-09T20:03:04.937Z,97474.17
2018-09-09T20:05:32.497Z,97475.98
2018-09-09T20:07:59.720Z,97475.36
2018-09-09T20:10:26.885Z,97463.61
2018-09-09T20:12:54.598Z,97479.50
2018-09-09T20:15:21.936Z,97472.70
2018-09-09T20:17:50.116Z,97474.00
2018-09-09T20:20:17.343Z,97477.59
2018-09-09T20:22:44.764Z,97487.02
2018-09-09T20:25:12.026Z,97492.22
2018-09-09T20:27:40.809Z,97491.94
2018-09-09T20:30:08.171Z,97492.03
2018-09-09T20:32:35.417Z,97492.18
2018-09-09T20:35:02.864Z,97495.48
2018-09-09T20:37:30.144Z,97492.75
2018-09-09T20:39:57.348Z,97491.45
2018-09-09T20:42:24.563Z,97493.49
2018-09-09T20:44:51.872Z,97499.20
2018-09-09T20:47:19.167Z,97492.50
2018-09-09T20:49:46.483Z,97499.05
2018-09-09T20:52:13.987Z,97495.53
2018-09-09T20:54:41.147Z,97500.23
2018-09-09T20:57:08.456Z,97503.34
2018-09-09T20:59:35.696Z,97495.84
2018-09-09T21:02:02.938Z,97500.79
2018-09-09T21:04:30.187Z,97502.06
2018-09-09T21:06:57.397Z,97500.84
2018-09-09T21:09:24.595Z,97500.30
2018-09-09T21:11:51.889Z,97508.97
2018-09-09T21:14:19.159Z,97507.83
2018-09-09T21:16:46.518Z,97513.34
2018-09-09T21:19:13.761Z,97514.70
2018-09-09T21:21:40.946Z,97511.88
2018-09-09T21:24:08.343Z,97517.47
2018-09-09T21:26:36.076Z,97517.03
2018-09-09T21:29:03.254Z,97513.14
2018-09-09T21:31:30.649Z,97517.25
2018-09-09T21:33:57.908Z,97511.38
2018-09-09T21:36:25.109Z,97503.16
2018-09-09T21:38:52.352Z,97504.28
2018-09-09T21:41:19.530Z,97510.53
2018-09-09T21:43:46.689Z,97502.98
2018-09-09T21:46:14.017Z,97508.66
2018-09-09T21:48:41.220Z,97508.73
2018-09-09T21:51:08.324Z,97505.19
2018-09-09T21:53:35.677Z,97504.73
2018-09-09T21:56:02.854Z,97508.95
2018-09-09T21:58:30.132Z,97501.36
2018-09-09T22:01:03.017Z,97511.52
2018-09-09T22:03:30.771Z,97505.84
2018-09-09T22:05:57.986Z,97506.48
2018-09-09T22:08:26.173Z,97497.37
2018-09-09T22:10:53.325Z,97500.30
2018-09-09T22:13:20.572Z,97497.41
2018-09-09T22:15:47.747Z,97495.30
2018-09-09T22:18:14.965Z,97491.23
2018-09-09T22:20:42.381Z,97495.75
2018-09-09T22:23:09.561Z,97497.92
2018-09-09T22:25:37.137Z,97504.23
2018-09-09T22:28:04.718Z,97499.50
2018-09-09T22:30:31.937Z,97508.41
2018-09-09T22:32:59.328Z,97505.89
2018-09-09T22:35:26.747Z,97510.02
2018-09-09T22:37:53.928Z,97513.75
2018-09-09T22:40:21.185Z,97512.06
2018-09-09T22:42:48.329Z,97514.98
2018-09-09T22:45:15.492Z,97519.28
2018-09-09T22:47:42.920Z,97512.73
2018-09-09T22:50:10.788Z,97513.81
2018-09-09T22:52:37.935Z,97516.06
2018-09-09T22:55:05.192Z,97504.62
2018-09-09T22:57:32.678Z,97515.05
2018-09-09T22:59:59.860Z,97505.44
2018-09-09T23:02:27.173Z,97504.03
2018-09-09T23:04:54.365Z,97509.91
2018-09-09T23:07:21.567Z,97513.51
2018-09-09T23:09:48.766Z,97513.66
2018-09-09T23:12:15.935Z,97511.40
2018-09-09T23:14:43.303Z,97509.64
2018-09-09T23:17:10.564Z,97510.36
2018-09-09T23:19:37.700Z,97511.45
2018-09-09T23:22:04.892Z,97511.39
2018-09-09T23:24:32.045Z,97509.61
2018-09-09T23:26:59.189Z,97506.88
2018-09-09T23:29:26.416Z,97504.14
2018-09-09T23:31:53.666Z,97511.38
2018-09-09T23:34:20.813Z,97509.32
2018-09-09T23:36:48.128Z,97508.41
2018-09-09T23:39:15.293Z,97508.87
2018-09-09T23:41:42.537Z,97500.36
2018-09-09T23:44:09.708Z,97509.81
2018-09-09T23:46:37.622Z,97504.66
2018-09-09T23:49:04.787Z,97505.55
2018-09-09T23:51:32.017Z,97505.36
2018-09-09T23:53:59.227Z,97503.84
2018-09-09T23:56:26.428Z,97505.47
2018-09-09T23:58:53.627Z,97505.45
